Maersk Douglas — DCPL2 — position and weather

sailwx.info

Track history (hours):
 
Tides and Currents Weather Stations Pressure Air Temp Water Temp Dewpoint Dewpoint Depression Visibility Wind Speed Wind Dir Waves Ship Positions

Maersk Douglas

Last reported at 2017-Jun-29 11:00 UTC. Time now 2017-Jun-29 11:01 UTC.
Position N 53°32' E 009°55'.

Length 294.1 m; beam 32.2 m; draft 13.7 m.

Type: Tug. MMSI: 211710650.

Date/timePositionNaut miles runAvg speedWind from/ knotsBaromVisibWave heightAir tempDewpointWater temp
2017-Jun-29 11:00N 53°32' E 009°55'1 1.0
2017-Jun-29 10:30N 53°32' E 009°54'2 4.8
2017-Jun-29 10:00N 53°33' E 009°50'3 5.3
2017-Jun-29 09:30N 53°33' E 009°55'0 0.4
2017-Jun-29 09:00N 53°33' E 009°55'1 2.7
2017-Jun-29 08:30N 53°31' E 009°56'3 5.6
2017-Jun-29 08:00N 53°29' E 009°59'0 1.0
2017-Jun-29 07:31N 53°30' E 009°59'1 1.9
2017-Jun-29 07:00N 53°30' E 009°58'2 4.1
2017-Jun-29 06:30N 53°32' E 009°56'1 1.5
2017-Jun-29 06:00N 53°33' E 009°55'0 0.0
2017-Jun-29 05:30N 53°33' E 009°55'0 0.0
2017-Jun-29 05:00N 53°33' E 009°55'0 0.0
2017-Jun-29 04:30N 53°33' E 009°55'0 0.0
2017-Jun-29 04:00N 53°33' E 009°55'0 0.0
2017-Jun-29 03:30N 53°33' E 009°55'0 0.0
2017-Jun-29 03:01N 53°33' E 009°55'0 0.0
2017-Jun-29 02:30N 53°33' E 009°55'0 0.0
2017-Jun-29 02:00N 53°33' E 009°55'0 0.0
2017-Jun-29 01:30N 53°33' E 009°55'0 0.0
2017-Jun-29 01:00N 53°33' E 009°55'0 0.0
2017-Jun-29 00:30N 53°33' E 009°55'0 0.0
2017-Jun-29 00:00N 53°33' E 009°55'0 0.0
2017-Jun-28 23:30N 53°33' E 009°55'0 0.0
2017-Jun-28 23:00N 53°33' E 009°55'0 0.0
2017-Jun-28 22:30N 53°33' E 009°55'0 0.0
2017-Jun-28 22:00N 53°33' E 009°55'0 0.0
2017-Jun-28 21:30N 53°33' E 009°55'0 0.0
2017-Jun-28 21:00N 53°33' E 009°55'0 0.0
2017-Jun-28 20:30N 53°33' E 009°55'0 0.0
2017-Jun-28 20:00N 53°33' E 009°55'0 0.0
2017-Jun-28 19:30N 53°33' E 009°55'0 0.0
2017-Jun-28 19:01N 53°33' E 009°55'0 0.0
2017-Jun-28 18:30N 53°33' E 009°55'0 0.0
2017-Jun-28 18:00N 53°33' E 009°55'0 0.1
2017-Jun-28 17:30N 53°33' E 009°55'0 0.0
2017-Jun-28 17:00N 53°33' E 009°55'1 2.9
2017-Jun-28 16:30N 53°31' E 009°56'3 5.6
2017-Jun-28 16:00N 53°29' E 009°58'0 0.2
2017-Jun-28 15:31N 53°29' E 009°58'1 2.7
2017-Jun-28 15:00N 53°30' E 009°57'2 4.9
2017-Jun-28 14:31N 53°32' E 009°56'1 0.6
2017-Jun-28 13:31N 53°33' E 009°55'0 0.0
2017-Jun-28 13:01N 53°33' E 009°55'0 0.0
2017-Jun-28 12:30N 53°33' E 009°55'0 0.0
2017-Jun-28 12:00N 53°33' E 009°55'0 0.0
2017-Jun-28 11:30N 53°33' E 009°55'0 0.0
2017-Jun-28 11:00N 53°33' E 009°55'0 0.2
2017-Jun-28 10:30N 53°33' E 009°55'0 0.0
2017-Jun-28 10:00N 53°33' E 009°55'0 0.1
2017-Jun-28 09:30N 53°33' E 009°55'3 5.5
2017-Jun-28 09:00N 53°30' E 009°56'1 2.5
2017-Jun-28 08:30N 53°31' E 009°56'3 5.3
2017-Jun-28 08:00N 53°33' E 009°53'1 1.2
2017-Jun-28 07:30N 53°33' E 009°54'1 2.1
2017-Jun-28 07:00N 53°33' E 009°55'0 0.0
2017-Jun-28 06:30N 53°33' E 009°55'3 5.4
2017-Jun-28 06:01N 53°30' E 009°57'0 0.4
2017-Jun-28 05:30N 53°30' E 009°57'3 5.4
2017-Jun-28 05:00N 53°32' E 009°54'1 1.0
2017-Jun-28 04:30N 53°33' E 009°55'0 0.0
2017-Jun-28 04:00N 53°33' E 009°55'0 0.0
2017-Jun-28 03:30N 53°33' E 009°55'0 0.0
2017-Jun-28 03:00N 53°33' E 009°55'0 0.0
2017-Jun-28 02:30N 53°33' E 009°55'0 0.0
2017-Jun-28 02:00N 53°33' E 009°55'0 0.0
2017-Jun-28 01:30N 53°33' E 009°55'0 0.0
2017-Jun-28 01:00N 53°33' E 009°55'0 0.0
2017-Jun-28 00:31N 53°33' E 009°55'0 0.0
2017-Jun-28 00:00N 53°33' E 009°55'0 0.0
2017-Jun-27 23:30N 53°33' E 009°55'0 0.0
2017-Jun-27 23:01N 53°33' E 009°55'0 0.0
2017-Jun-27 22:30N 53°33' E 009°55'0 0.0
2017-Jun-27 22:00N 53°33' E 009°55'0 0.0
2017-Jun-27 21:31N 53°33' E 009°55'1 1.5
2017-Jun-27 21:00N 53°32' E 009°54'0 0.4
2017-Jun-27 20:30N 53°32' E 009°54'0 0.9
2017-Jun-27 20:00N 53°32' E 009°54'2 4.5
2017-Jun-27 19:31N 53°33' E 009°50'2 4.2
2017-Jun-27 19:01N 53°33' E 009°54'1 1.8
2017-Jun-27 18:31N 53°33' E 009°55'0 0.0
2017-Jun-27 18:01N 53°33' E 009°55'0 0.0
2017-Jun-27 17:30N 53°33' E 009°55'0 0.0
2017-Jun-27 17:01N 53°33' E 009°55'0 0.0
2017-Jun-27 16:31N 53°33' E 009°55'0 0.0
2017-Jun-27 16:01N 53°33' E 009°55'0 0.0
2017-Jun-27 15:31N 53°33' E 009°55'0 0.0
2017-Jun-27 15:00N 53°33' E 009°55'2 2.3
2017-Jun-27 14:01N 53°32' E 009°59'1 2.3
2017-Jun-27 13:31N 53°33' E 009°57'1 1.5
2017-Jun-27 13:01N 53°32' E 009°56'0 0.9
2017-Jun-27 12:30N 53°33' E 009°55'0 0.0
2017-Jun-27 12:01N 53°33' E 009°55'0 0.0
2017-Jun-27 11:31N 53°33' E 009°55'0 0.0
2017-Jun-27 11:01N 53°33' E 009°55'0 0.0
2017-Jun-27 10:31N 53°33' E 009°55'0 0.0
2017-Jun-27 10:01N 53°33' E 009°55'0 0.0
2017-Jun-27 09:30N 53°33' E 009°55'0 0.2
2017-Jun-27 09:01N 53°33' E 009°55'0 0.0
2017-Jun-27 08:31N 53°33' E 009°55'0 0.0
2017-Jun-27 08:00N 53°33' E 009°55'0 0.0
2017-Jun-27 07:30N 53°33' E 009°55'0 0.0
2017-Jun-27 07:00N 53°33' E 009°55'0 0.0
2017-Jun-27 06:31N 53°33' E 009°55'0 0.0
2017-Jun-27 06:01N 53°33' E 009°55'0 0.0
2017-Jun-27 05:31N 53°33' E 009°55'1 2.7
2017-Jun-27 05:01N 53°32' E 009°54'1 2.8
2017-Jun-27 04:31N 53°33' E 009°55'0 0.0
2017-Jun-27 04:01N 53°33' E 009°55'0 0.0
2017-Jun-27 03:31N 53°33' E 009°55'0 0.0
2017-Jun-27 03:01N 53°33' E 009°55'0 0.0
2017-Jun-27 02:31N 53°33' E 009°55'0 0.0
2017-Jun-27 02:00N 53°33' E 009°55'0 0.0
2017-Jun-27 01:31N 53°33' E 009°55'0 0.0
2017-Jun-27 01:01N 53°33' E 009°55'0 0.0
2017-Jun-27 00:31N 53°33' E 009°55'0 0.0
2017-Jun-27 00:00N 53°33' E 009°55'0 0.0
2017-Jun-26 23:31N 53°33' E 009°55'0 0.0
2017-Jun-26 23:01N 53°33' E 009°55'0 0.0
2017-Jun-26 22:30N 53°33' E 009°55'0 0.0
2017-Jun-26 22:01N 53°33' E 009°55'0 0.0
2017-Jun-26 21:30N 53°33' E 009°55'0 0.0
2017-Jun-26 21:01N 53°33' E 009°55'0 0.0
2017-Jun-26 20:30N 53°33' E 009°55'0 0.0
2017-Jun-26 20:01N 53°33' E 009°55'0 0.0
2017-Jun-26 19:31N 53°33' E 009°55'0 0.0
2017-Jun-26 19:00N 53°33' E 009°55'0 0.0
2017-Jun-26 18:31N 53°33' E 009°55'0 0.2
2017-Jun-26 18:00N 53°33' E 009°55'0 0.0
2017-Jun-26 17:30N 53°33' E 009°55'1 2.6
2017-Jun-26 17:01N 53°32' E 009°56'0 0.7
2017-Jun-26 16:31N 53°31' E 009°56'2 4.6
2017-Jun-26 16:01N 53°33' E 009°53'1 1.3
2017-Jun-26 15:31N 53°33' E 009°54'1 1.1
2017-Jun-26 15:01N 53°33' E 009°55'0 0.0
2017-Jun-26 14:30N 53°33' E 009°55'0 0.0
2017-Jun-26 13:31N 53°33' E 009°55'0 0.0
2017-Jun-26 13:00N 53°33' E 009°55'0 0.0
2017-Jun-26 12:31N 53°33' E 009°55'0 0.0
2017-Jun-26 12:00N 53°33' E 009°55'0 0.0
2017-Jun-26 11:31N 53°33' E 009°55'0 0.0
2017-Jun-26 11:01N 53°33' E 009°55'0 0.0
2017-Jun-26 10:31N 53°33' E 009°55'0 0.0
2017-Jun-26 10:01N 53°33' E 009°55'0 0.0
2017-Jun-26 09:30N 53°33' E 009°55'0 0.0
2017-Jun-26 09:00N 53°33' E 009°55'0 0.2
2017-Jun-26 08:31N 53°33' E 009°55'0 0.5
2017-Jun-26 08:01N 53°33' E 009°56'2 4.5
2017-Jun-26 07:31N 53°32' E 009°59'1 1.3
2017-Jun-26 07:01N 53°32' E 009°59'1 2.0
2017-Jun-26 06:30N 53°32' E 009°57'1 1.8
2017-Jun-26 06:00N 53°33' E 009°55'0 0.0
2017-Jun-26 05:30N 53°33' E 009°55'1 1.5
2017-Jun-26 05:01N 53°32' E 009°54'0 0.1
2017-Jun-26 04:31N 53°32' E 009°54'2 4.6
2017-Jun-26 04:01N 53°33' E 009°51'0 0.2
2017-Jun-26 03:31N 53°33' E 009°51'1 1.3
2017-Jun-26 03:00N 53°33' E 009°52'2 4.4
2017-Jun-26 02:31N 53°32' E 009°55'1 1.6
2017-Jun-26 02:01N 53°33' E 009°55'0 0.1
2017-Jun-26 01:31N 53°33' E 009°55'0 0.0
2017-Jun-26 01:01N 53°33' E 009°55'0 0.0
2017-Jun-26 00:31N 53°33' E 009°55'0 0.0
2017-Jun-26 00:01N 53°33' E 009°55'0 0.0
2017-Jun-25 23:31N 53°33' E 009°55'0 0.0
2017-Jun-25 23:01N 53°33' E 009°55'0 0.0
2017-Jun-25 22:31N 53°33' E 009°55'0 0.0
2017-Jun-25 22:00N 53°33' E 009°55'0 0.0
2017-Jun-25 21:30N 53°33' E 009°55'0 0.0
2017-Jun-25 21:01N 53°33' E 009°55'0 0.0
2017-Jun-25 20:31N 53°33' E 009°55'0 0.0
2017-Jun-25 20:01N 53°33' E 009°55'0 0.0
2017-Jun-25 19:30N 53°33' E 009°55'0 0.0
2017-Jun-25 19:00N 53°33' E 009°55'0 0.0
2017-Jun-25 18:31N 53°33' E 009°55'0 0.0
2017-Jun-25 18:01N 53°33' E 009°55'0 0.0
2017-Jun-25 17:30N 53°33' E 009°55'0 0.0
2017-Jun-25 17:00N 53°33' E 009°55'0 0.0
2017-Jun-25 16:31N 53°33' E 009°55'0 0.0
2017-Jun-25 16:01N 53°33' E 009°55'0 0.0
2017-Jun-25 15:31N 53°33' E 009°55'0 0.0
2017-Jun-25 15:01N 53°33' E 009°55'0 0.0
2017-Jun-25 14:31N 53°33' E 009°55'0 0.0
2017-Jun-25 13:30N 53°33' E 009°55'0 0.0
2017-Jun-25 13:00N 53°33' E 009°55'0 0.0
2017-Jun-25 12:31N 53°33' E 009°55'2 3.3
2017-Jun-25 12:00N 53°31' E 009°56'1 1.8
2017-Jun-25 11:30N 53°30' E 009°56'1 1.3
2017-Jun-25 11:01N 53°31' E 009°56'2 5.0
2017-Jun-25 10:31N 53°32' E 009°53'2 3.1
2017-Jun-25 10:00N 53°33' E 009°51'3 5.1
2017-Jun-25 09:30N 53°33' E 009°55'0 0.5
2017-Jun-25 09:00N 53°33' E 009°55'0 0.0
2017-Jun-25 08:30N 53°33' E 009°55'0 0.0
2017-Jun-25 08:00N 53°33' E 009°55'0 0.0
2017-Jun-25 07:30N 53°33' E 009°55'0 0.0
2017-Jun-25 07:01N 53°33' E 009°55'0 0.0
2017-Jun-25 06:31N 53°33' E 009°55'0 0.0
2017-Jun-25 06:00N 53°33' E 009°55'0 0.6
2017-Jun-25 05:31N 53°32' E 009°55'1 1.6
2017-Jun-25 05:01N 53°32' E 009°55'1 1.5
2017-Jun-25 04:31N 53°32' E 009°54'2 3.8
2017-Jun-25 04:00N 53°32' E 009°57'1 3.0
2017-Jun-25 03:31N 53°33' E 009°55'0 0.0
2017-Jun-25 03:01N 53°33' E 009°55'0 0.0
2017-Jun-25 02:31N 53°33' E 009°55'0 0.0
2017-Jun-25 02:01N 53°33' E 009°55'0 0.0
2017-Jun-25 01:30N 53°33' E 009°55'0 0.0
2017-Jun-25 01:01N 53°33' E 009°55'0 0.0
2017-Jun-25 00:30N 53°33' E 009°55'0 0.0
2017-Jun-25 00:01N 53°33' E 009°55'0 0.0
2017-Jun-24 23:31N 53°33' E 009°55'0 0.0
2017-Jun-24 23:00N 53°33' E 009°55'0 0.0
2017-Jun-24 22:31N 53°33' E 009°55'0 0.0
2017-Jun-24 22:01N 53°33' E 009°55'0 0.0
2017-Jun-24 21:30N 53°33' E 009°55'0 0.0
2017-Jun-24 21:00N 53°33' E 009°55'0 0.0
2017-Jun-24 20:31N 53°33' E 009°55'0 0.0
2017-Jun-24 20:01N 53°33' E 009°55'0 0.0
2017-Jun-24 19:31N 53°33' E 009°55'0 0.0
2017-Jun-24 19:00N 53°33' E 009°55'0 0.0
2017-Jun-24 18:30N 53°33' E 009°55'0 0.0
2017-Jun-24 18:01N 53°33' E 009°55'2 4.0
2017-Jun-24 17:31N 53°32' E 009°59'2 4.0
2017-Jun-24 17:01N 53°33' E 009°55'0 0.0
2017-Jun-24 16:30N 53°33' E 009°55'0 0.0
2017-Jun-24 16:00N 53°33' E 009°55'0 0.0
2017-Jun-24 15:30N 53°33' E 009°55'0 0.0
2017-Jun-24 15:00N 53°33' E 009°55'1 0.8
2017-Jun-24 14:01N 53°32' E 009°57'1 1.5
2017-Jun-24 13:30N 53°33' E 009°55'0 0.0
2017-Jun-24 13:01N 53°33' E 009°55'0 0.0
2017-Jun-24 12:31N 53°33' E 009°55'0 0.0
2017-Jun-24 12:01N 53°33' E 009°55'0 0.0
2017-Jun-24 11:31N 53°33' E 009°55'0 0.0
2017-Jun-24 11:01N 53°33' E 009°55'0 0.0
2017-Jun-24 10:31N 53°33' E 009°55'0 0.0
2017-Jun-24 10:01N 53°33' E 009°55'0 0.0
2017-Jun-24 09:30N 53°33' E 009°55'0 0.0
2017-Jun-24 09:00N 53°33' E 009°55'0 0.0
2017-Jun-24 08:31N 53°33' E 009°55'0 0.0
2017-Jun-24 08:01N 53°33' E 009°55'0 0.0
2017-Jun-24 07:31N 53°33' E 009°55'0 0.0
2017-Jun-24 07:01N 53°33' E 009°55'0 0.0
2017-Jun-24 06:31N 53°33' E 009°55'0 0.0
2017-Jun-24 06:00N 53°33' E 009°55'0 0.0
2017-Jun-24 05:31N 53°33' E 009°55'1 1.9
2017-Jun-24 05:00N 53°32' E 009°57'2 3.2
2017-Jun-24 04:31N 53°32' E 009°54'1 1.3
2017-Jun-24 04:01N 53°32' E 009°55'1 1.7
2017-Jun-24 03:31N 53°33' E 009°55'0 0.0
2017-Jun-24 03:00N 53°33' E 009°55'0 0.0
2017-Jun-24 02:31N 53°33' E 009°55'0 0.0
2017-Jun-24 02:00N 53°33' E 009°55'0 0.0
2017-Jun-24 01:30N 53°33' E 009°55'0 0.0
2017-Jun-24 01:00N 53°33' E 009°55'0 0.0
2017-Jun-24 00:31N 53°33' E 009°55'0 0.0
2017-Jun-24 00:00N 53°33' E 009°55'0 0.0
2017-Jun-23 23:30N 53°33' E 009°55'0 0.0
2017-Jun-23 23:00N 53°33' E 009°55'0 0.0
2017-Jun-23 22:30N 53°33' E 009°55'0 0.0
2017-Jun-23 22:01N 53°33' E 009°55'0 0.9
2017-Jun-23 21:31N 53°32' E 009°56'2 4.2
2017-Jun-23 21:00N 53°30' E 009°56'0 0.7
2017-Jun-23 20:31N 53°31' E 009°56'2 4.3
2017-Jun-23 20:01N 53°32' E 009°54'1 1.4
2017-Jun-23 19:30N 53°33' E 009°55'0 0.0
2017-Jun-23 19:01N 53°33' E 009°55'0 0.0
2017-Jun-23 18:31N 53°33' E 009°55'0 0.0
2017-Jun-23 18:01N 53°33' E 009°55'0 0.0
2017-Jun-23 17:31N 53°33' E 009°55'0 0.0
2017-Jun-23 17:01N 53°33' E 009°55'0 0.0
2017-Jun-23 16:31N 53°33' E 009°55'0 0.0
2017-Jun-23 16:00N 53°33' E 009°55'0 0.0
2017-Jun-23 15:30N 53°33' E 009°55'0 0.0
2017-Jun-23 15:01N 53°33' E 009°55'2 1.6
2017-Jun-23 14:01N 53°31' E 009°56'1 2.8
2017-Jun-23 13:30N 53°32' E 009°56'0 0.6
2017-Jun-23 13:01N 53°33' E 009°55'0 0.0
2017-Jun-23 12:31N 53°33' E 009°55'0 0.0
2017-Jun-23 12:01N 53°33' E 009°55'0 0.0
2017-Jun-23 11:30N 53°33' E 009°55'0 0.0
2017-Jun-23 11:00N 53°33' E 009°55'0 0.0
2017-Jun-23 10:31N 53°33' E 009°55'0 0.0
2017-Jun-23 10:01N 53°33' E 009°55'0 0.0
2017-Jun-23 09:31N 53°33' E 009°55'0 0.0
2017-Jun-23 09:01N 53°33' E 009°55'0 0.0
2017-Jun-23 08:31N 53°33' E 009°55'0 0.0
2017-Jun-23 08:01N 53°33' E 009°55'0 0.0
2017-Jun-23 07:31N 53°33' E 009°55'0 0.0
2017-Jun-23 07:01N 53°33' E 009°55'0 0.0
2017-Jun-23 06:31N 53°33' E 009°55'0 0.0
2017-Jun-23 06:00N 53°33' E 009°55'0 0.0
2017-Jun-23 05:31N 53°33' E 009°55'0 0.0
2017-Jun-23 05:00N 53°33' E 009°55'0 0.0
2017-Jun-23 04:30N 53°33' E 009°55'0 0.0
2017-Jun-23 04:01N 53°33' E 009°55'0 0.0
2017-Jun-23 03:31N 53°33' E 009°55'0 0.0
2017-Jun-23 03:00N 53°33' E 009°55'0 0.0
2017-Jun-23 02:30N 53°33' E 009°55'0 0.0
2017-Jun-23 02:00N 53°33' E 009°55'0 0.0
2017-Jun-23 01:31N 53°33' E 009°55'0 0.0
2017-Jun-23 01:01N 53°33' E 009°55'0 0.0
2017-Jun-23 00:31N 53°33' E 009°55'0 0.0
2017-Jun-23 00:00N 53°33' E 009°55'0 0.0
2017-Jun-22 23:31N 53°33' E 009°55'0 0.0
2017-Jun-22 23:01N 53°33' E 009°55'0 0.0
2017-Jun-22 22:31N 53°33' E 009°55'0 0.0
2017-Jun-22 22:01N 53°33' E 009°55'0 0.0
2017-Jun-22 21:31N 53°33' E 009°55'0 0.0
2017-Jun-22 21:01N 53°33' E 009°55'0 0.0
2017-Jun-22 20:31N 53°33' E 009°55'0 0.0
2017-Jun-22 20:01N 53°33' E 009°55'0 0.0
2017-Jun-22 19:31N 53°33' E 009°55'0 0.0
2017-Jun-22 19:01N 53°33' E 009°55'1 1.5
2017-Jun-22 18:30N 53°32' E 009°54'0 0.2
2017-Jun-22 18:00N 53°32' E 009°54'2 3.5
2017-Jun-22 17:31N 53°33' E 009°52'2 4.5
2017-Jun-22 17:01N 53°33' E 009°55'0 0.0
2017-Jun-22 16:30N 53°33' E 009°55'0 0.0
2017-Jun-22 16:00N 53°33' E 009°55'0 0.0
2017-Jun-22 15:31N 53°33' E 009°55'0 0.0
2017-Jun-22 15:00N 53°33' E 009°55'0 0.0
2017-Jun-22 14:01N 53°33' E 009°55'0 0.0
2017-Jun-22 13:31N 53°33' E 009°55'0 0.0
2017-Jun-22 13:01N 53°33' E 009°55'0 0.0
2017-Jun-22 12:31N 53°33' E 009°55'0 0.0
2017-Jun-22 12:01N 53°33' E 009°55'0 0.0
2017-Jun-22 11:30N 53°33' E 009°55'0 0.0
2017-Jun-22 11:00N 53°33' E 009°55'0 0.0
2017-Jun-22 10:31N 53°33' E 009°55'0 0.0
2017-Jun-22 10:00N 53°33' E 009°55'0 0.0
2017-Jun-22 09:31N 53°33' E 009°55'0 0.0
2017-Jun-22 09:00N 53°33' E 009°55'0 0.0
2017-Jun-22 08:31N 53°33' E 009°55'0 0.0
2017-Jun-22 08:00N 53°33' E 009°55'0 0.0
2017-Jun-22 07:30N 53°33' E 009°55'0 0.0
2017-Jun-22 07:01N 53°33' E 009°55'0 0.0
2017-Jun-22 06:31N 53°33' E 009°55'0 0.0
2017-Jun-22 06:00N 53°33' E 009°55'0 0.0
2017-Jun-22 05:31N 53°33' E 009°55'0 0.0
2017-Jun-22 05:01N 53°33' E 009°55'0 0.0
2017-Jun-22 04:31N 53°33' E 009°55'0 0.0
2017-Jun-22 04:00N 53°33' E 009°55'0 0.0
2017-Jun-22 03:30N 53°33' E 009°55'0 0.0
2017-Jun-22 03:01N 53°33' E 009°55'0 0.0
2017-Jun-22 02:31N 53°33' E 009°55'0 0.0
2017-Jun-22 02:01N 53°33' E 009°55'0 0.0
2017-Jun-22 01:31N 53°33' E 009°55'0 0.0
2017-Jun-22 01:01N 53°33' E 009°55'2 3.2
2017-Jun-22 00:30N 53°31' E 009°56'1 1.9
2017-Jun-22 00:01N 53°32' E 009°56'3 5.3
2017-Jun-21 23:30N 53°33' E 009°52'2 4.2
2017-Jun-21 23:01N 53°33' E 009°55'0 0.0
2017-Jun-21 22:31N 53°33' E 009°55'0 0.0
2017-Jun-21 22:01N 53°33' E 009°55'0 0.0
2017-Jun-21 21:31N 53°33' E 009°55'0 0.4
2017-Jun-21 21:00N 53°33' E 009°56'2 4.9
2017-Jun-21 20:31N 53°30' E 009°57'2 3.2
2017-Jun-21 20:00N 53°32' E 009°56'1 2.6
2017-Jun-21 19:30N 53°32' E 009°54'1 1.3
2017-Jun-21 19:00N 53°33' E 009°55'0 0.0
2017-Jun-21 18:31N 53°33' E 009°55'0 0.0
2017-Jun-21 18:01N 53°33' E 009°55'1 1.7
2017-Jun-21 17:30N 53°33' E 009°57'1 3.0
2017-Jun-21 17:01N 53°32' E 009°59'1 2.4
2017-Jun-21 16:30N 53°33' E 009°57'1 2.3
2017-Jun-21 16:00N 53°33' E 009°55'0 0.0
2017-Jun-21 15:30N 53°33' E 009°55'0 0.0
2017-Jun-21 15:01N 53°33' E 009°55'0 0.0
2017-Jun-21 14:30N 53°33' E 009°55'0 0.0
2017-Jun-21 13:30N 53°33' E 009°55'3 6.3
2017-Jun-21 13:01N 53°32' E 010°00'0 0.1
2017-Jun-21 12:30N 53°32' E 010°00'2 4.9
2017-Jun-21 12:01N 53°32' E 009°56'2 3.1
2017-Jun-21 11:31N 53°30' E 009°56'2 3.0
2017-Jun-21 11:01N 53°32' E 009°56'1 1.8
2017-Jun-21 10:30N 53°33' E 009°55'0 0.0
2017-Jun-21 10:01N 53°33' E 009°55'0 0.0
2017-Jun-21 09:31N 53°33' E 009°55'0 0.0
2017-Jun-21 09:01N 53°33' E 009°55'0 0.0
2017-Jun-21 08:30N 53°33' E 009°55'0 0.0
2017-Jun-21 08:00N 53°33' E 009°55'0 0.0
2017-Jun-21 07:31N 53°33' E 009°55'0 0.0
2017-Jun-21 07:00N 53°33' E 009°55'0 0.0
2017-Jun-21 06:30N 53°33' E 009°55'0 0.0
2017-Jun-21 06:01N 53°33' E 009°55'0 0.0
2017-Jun-21 05:31N 53°33' E 009°55'0 0.0
2017-Jun-21 05:01N 53°33' E 009°55'0 0.0
2017-Jun-21 04:31N 53°33' E 009°55'0 0.0
2017-Jun-21 04:00N 53°33' E 009°55'0 0.0
2017-Jun-21 03:30N 53°33' E 009°55'0 0.0
2017-Jun-21 03:01N 53°33' E 009°55'0 0.0
2017-Jun-21 02:30N 53°33' E 009°55'0 0.0
2017-Jun-21 02:01N 53°33' E 009°55'0 0.0
2017-Jun-21 01:31N 53°33' E 009°55'0 0.0
2017-Jun-21 01:01N 53°33' E 009°55'0 0.0
2017-Jun-21 00:31N 53°33' E 009°55'0 0.0
2017-Jun-21 00:01N 53°33' E 009°55'0 0.0
2017-Jun-20 23:31N 53°33' E 009°55'0 0.8
2017-Jun-20 23:01N 53°33' E 009°55'0 0.0
2017-Jun-20 22:30N 53°33' E 009°55'0 0.8
2017-Jun-20 22:01N 53°33' E 009°55'0 0.0
2017-Jun-20 21:31N 53°33' E 009°55'0 0.0
2017-Jun-20 21:00N 53°33' E 009°55'0 0.0
2017-Jun-20 20:30N 53°33' E 009°55'0 0.0
2017-Jun-20 20:00N 53°33' E 009°55'0 0.0
2017-Jun-20 19:30N 53°33' E 009°55'0 0.0
2017-Jun-20 19:00N 53°33' E 009°55'0 0.0
2017-Jun-20 18:30N 53°33' E 009°55'0 0.0
2017-Jun-20 18:00N 53°33' E 009°55'0 0.0
2017-Jun-20 17:31N 53°33' E 009°55'0 0.0
2017-Jun-20 17:00N 53°33' E 009°55'0 0.0
2017-Jun-20 16:30N 53°33' E 009°55'0 0.0
2017-Jun-20 16:00N 53°33' E 009°55'0 0.0
2017-Jun-20 15:31N 53°33' E 009°55'0 0.0
2017-Jun-20 15:00N 53°33' E 009°55'0 0.0
2017-Jun-20 14:31N 53°33' E 009°55'2 1.9
2017-Jun-20 13:30N 53°33' E 009°52'4 7.7
2017-Jun-20 13:00N 53°34' E 009°46'4 8.1
2017-Jun-20 12:31N 53°34' E 009°39'4 7.9
2017-Jun-20 12:01N 53°37' E 009°34'3 6.4
2017-Jun-20 11:31N 53°39' E 009°31'0 0.2
2017-Jun-20 11:00N 53°39' E 009°31'2 3.0
2017-Jun-20 10:31N 53°41' E 009°30'3 6.7
2017-Jun-20 10:01N 53°38' E 009°32'611.7
2017-Jun-20 09:30N 53°34' E 009°40'510.1
2017-Jun-20 09:00N 53°33' E 009°49'4 8.0
2017-Jun-20 08:30N 53°33' E 009°55'0 0.0
2017-Jun-20 08:01N 53°33' E 009°55'0 0.0
2017-Jun-20 07:30N 53°33' E 009°55'0 0.0
2017-Jun-20 07:01N 53°33' E 009°55'0 0.0
2017-Jun-20 06:31N 53°33' E 009°55'0 0.0
2017-Jun-20 06:00N 53°33' E 009°55'0 0.0
2017-Jun-20 05:30N 53°33' E 009°55'0 0.0
2017-Jun-20 05:00N 53°33' E 009°55'0 0.0
2017-Jun-20 04:31N 53°33' E 009°55'0 0.0
2017-Jun-20 04:00N 53°33' E 009°55'0 0.0
2017-Jun-20 03:31N 53°33' E 009°55'0 0.0
2017-Jun-20 03:01N 53°33' E 009°55'0 0.0
2017-Jun-20 02:31N 53°33' E 009°55'0 0.0
2017-Jun-20 02:00N 53°33' E 009°55'0 0.0
2017-Jun-20 01:31N 53°33' E 009°55'0 0.0
2017-Jun-20 01:01N 53°33' E 009°55'0 0.0
2017-Jun-20 00:31N 53°33' E 009°55'0 0.0
2017-Jun-20 00:00N 53°33' E 009°55'0 0.0
2017-Jun-19 23:31N 53°33' E 009°55'0 0.0
2017-Jun-19 23:00N 53°33' E 009°55'0 0.0
2017-Jun-19 22:31N 53°33' E 009°55'0 0.0
2017-Jun-19 22:00N 53°33' E 009°55'0 0.0
2017-Jun-19 21:31N 53°33' E 009°55'0 0.0
2017-Jun-19 21:01N 53°33' E 009°55'0 0.0
2017-Jun-19 20:31N 53°33' E 009°55'0 0.0
2017-Jun-19 20:01N 53°33' E 009°55'0 0.0
2017-Jun-19 19:30N 53°33' E 009°55'0 0.0
2017-Jun-19 19:00N 53°33' E 009°55'0 0.0
2017-Jun-19 18:30N 53°33' E 009°55'0 0.1
2017-Jun-19 18:01N 53°33' E 009°55'2 4.8
2017-Jun-19 17:31N 53°30' E 009°56'1 2.9
2017-Jun-19 17:00N 53°32' E 009°56'3 5.7
2017-Jun-19 16:31N 53°33' E 009°52'2 4.2
2017-Jun-19 16:00N 53°33' E 009°55'0 0.0
2017-Jun-19 15:31N 53°33' E 009°55'0 0.0
2017-Jun-19 15:01N 53°33' E 009°55'2 2.4
2017-Jun-19 14:00N 53°32' E 009°59'2 3.6
2017-Jun-19 13:30N 53°33' E 009°56'2 4.6
2017-Jun-19 13:01N 53°30' E 009°57'2 3.6
2017-Jun-19 12:30N 53°32' E 009°56'1 1.5
2017-Jun-19 12:01N 53°33' E 009°55'0 0.0
2017-Jun-19 11:30N 53°33' E 009°55'0 0.0
2017-Jun-19 11:01N 53°33' E 009°55'  
Track history (hours):
 
Tides and Currents Weather Stations Pressure Air Temp Water Temp Dewpoint Dewpoint Depression Visibility Wind Speed Wind Dir Waves Ship Positions

Maersk Douglas

Last reported at 2017-Jun-29 11:00 UTC. Time now 2017-Jun-29 11:01 UTC.
Position N 53°32' E 009°55'.

Length 294.1 m; beam 32.2 m; draft 13.7 m.

Type: Tug. MMSI: 211710650.

Date/timePositionNaut miles runAvg speedWind from/ knotsBaromVisibWave heightAir tempDewpointWater temp
2017-Jun-29 11:00N 53°32' E 009°55'1 1.0
2017-Jun-29 10:30N 53°32' E 009°54'2 4.8
2017-Jun-29 10:00N 53°33' E 009°50'3 5.3
2017-Jun-29 09:30N 53°33' E 009°55'0 0.4
2017-Jun-29 09:00N 53°33' E 009°55'1 2.7
2017-Jun-29 08:30N 53°31' E 009°56'3 5.6
2017-Jun-29 08:00N 53°29' E 009°59'0 1.0
2017-Jun-29 07:31N 53°30' E 009°59'1 1.9
2017-Jun-29 07:00N 53°30' E 009°58'2 4.1
2017-Jun-29 06:30N 53°32' E 009°56'1 1.5
2017-Jun-29 06:00N 53°33' E 009°55'0 0.0
2017-Jun-29 05:30N 53°33' E 009°55'0 0.0
2017-Jun-29 05:00N 53°33' E 009°55'0 0.0
2017-Jun-29 04:30N 53°33' E 009°55'0 0.0
2017-Jun-29 04:00N 53°33' E 009°55'0 0.0
2017-Jun-29 03:30N 53°33' E 009°55'0 0.0
2017-Jun-29 03:01N 53°33' E 009°55'0 0.0
2017-Jun-29 02:30N 53°33' E 009°55'0 0.0
2017-Jun-29 02:00N 53°33' E 009°55'0 0.0
2017-Jun-29 01:30N 53°33' E 009°55'0 0.0
2017-Jun-29 01:00N 53°33' E 009°55'0 0.0
2017-Jun-29 00:30N 53°33' E 009°55'0 0.0
2017-Jun-29 00:00N 53°33' E 009°55'0 0.0
2017-Jun-28 23:30N 53°33' E 009°55'0 0.0
2017-Jun-28 23:00N 53°33' E 009°55'0 0.0
2017-Jun-28 22:30N 53°33' E 009°55'0 0.0
2017-Jun-28 22:00N 53°33' E 009°55'0 0.0
2017-Jun-28 21:30N 53°33' E 009°55'0 0.0
2017-Jun-28 21:00N 53°33' E 009°55'0 0.0
2017-Jun-28 20:30N 53°33' E 009°55'0 0.0
2017-Jun-28 20:00N 53°33' E 009°55'0 0.0
2017-Jun-28 19:30N 53°33' E 009°55'0 0.0
2017-Jun-28 19:01N 53°33' E 009°55'0 0.0
2017-Jun-28 18:30N 53°33' E 009°55'0 0.0
2017-Jun-28 18:00N 53°33' E 009°55'0 0.1
2017-Jun-28 17:30N 53°33' E 009°55'0 0.0
2017-Jun-28 17:00N 53°33' E 009°55'1 2.9
2017-Jun-28 16:30N 53°31' E 009°56'3 5.6
2017-Jun-28 16:00N 53°29' E 009°58'0 0.2
2017-Jun-28 15:31N 53°29' E 009°58'1 2.7
2017-Jun-28 15:00N 53°30' E 009°57'2 4.9
2017-Jun-28 14:31N 53°32' E 009°56'1 0.6
2017-Jun-28 13:31N 53°33' E 009°55'0 0.0
2017-Jun-28 13:01N 53°33' E 009°55'0 0.0
2017-Jun-28 12:30N 53°33' E 009°55'0 0.0
2017-Jun-28 12:00N 53°33' E 009°55'0 0.0
2017-Jun-28 11:30N 53°33' E 009°55'0 0.0
2017-Jun-28 11:00N 53°33' E 009°55'0 0.2
2017-Jun-28 10:30N 53°33' E 009°55'0 0.0
2017-Jun-28 10:00N 53°33' E 009°55'0 0.1
2017-Jun-28 09:30N 53°33' E 009°55'3 5.5
2017-Jun-28 09:00N 53°30' E 009°56'1 2.5
2017-Jun-28 08:30N 53°31' E 009°56'3 5.3
2017-Jun-28 08:00N 53°33' E 009°53'1 1.2
2017-Jun-28 07:30N 53°33' E 009°54'1 2.1
2017-Jun-28 07:00N 53°33' E 009°55'0 0.0
2017-Jun-28 06:30N 53°33' E 009°55'3 5.4
2017-Jun-28 06:01N 53°30' E 009°57'0 0.4
2017-Jun-28 05:30N 53°30' E 009°57'3 5.4
2017-Jun-28 05:00N 53°32' E 009°54'1 1.0
2017-Jun-28 04:30N 53°33' E 009°55'0 0.0
2017-Jun-28 04:00N 53°33' E 009°55'0 0.0
2017-Jun-28 03:30N 53°33' E 009°55'0 0.0
2017-Jun-28 03:00N 53°33' E 009°55'0 0.0
2017-Jun-28 02:30N 53°33' E 009°55'0 0.0
2017-Jun-28 02:00N 53°33' E 009°55'0 0.0
2017-Jun-28 01:30N 53°33' E 009°55'0 0.0
2017-Jun-28 01:00N 53°33' E 009°55'0 0.0
2017-Jun-28 00:31N 53°33' E 009°55'0 0.0
2017-Jun-28 00:00N 53°33' E 009°55'0 0.0
2017-Jun-27 23:30N 53°33' E 009°55'0 0.0
2017-Jun-27 23:01N 53°33' E 009°55'0 0.0
2017-Jun-27 22:30N 53°33' E 009°55'0 0.0
2017-Jun-27 22:00N 53°33' E 009°55'0 0.0
2017-Jun-27 21:31N 53°33' E 009°55'1 1.5
2017-Jun-27 21:00N 53°32' E 009°54'0 0.4
2017-Jun-27 20:30N 53°32' E 009°54'0 0.9
2017-Jun-27 20:00N 53°32' E 009°54'2 4.5
2017-Jun-27 19:31N 53°33' E 009°50'2 4.2
2017-Jun-27 19:01N 53°33' E 009°54'1 1.8
2017-Jun-27 18:31N 53°33' E 009°55'0 0.0
2017-Jun-27 18:01N 53°33' E 009°55'0 0.0
2017-Jun-27 17:30N 53°33' E 009°55'0 0.0
2017-Jun-27 17:01N 53°33' E 009°55'0 0.0
2017-Jun-27 16:31N 53°33' E 009°55'0 0.0
2017-Jun-27 16:01N 53°33' E 009°55'0 0.0
2017-Jun-27 15:31N 53°33' E 009°55'0 0.0
2017-Jun-27 15:00N 53°33' E 009°55'2 2.3
2017-Jun-27 14:01N 53°32' E 009°59'1 2.3
2017-Jun-27 13:31N 53°33' E 009°57'1 1.5
2017-Jun-27 13:01N 53°32' E 009°56'0 0.9
2017-Jun-27 12:30N 53°33' E 009°55'0 0.0
2017-Jun-27 12:01N 53°33' E 009°55'0 0.0
2017-Jun-27 11:31N 53°33' E 009°55'0 0.0
2017-Jun-27 11:01N 53°33' E 009°55'0 0.0
2017-Jun-27 10:31N 53°33' E 009°55'0 0.0
2017-Jun-27 10:01N 53°33' E 009°55'0 0.0
2017-Jun-27 09:30N 53°33' E 009°55'0 0.2
2017-Jun-27 09:01N 53°33' E 009°55'0 0.0
2017-Jun-27 08:31N 53°33' E 009°55'0 0.0
2017-Jun-27 08:00N 53°33' E 009°55'0 0.0
2017-Jun-27 07:30N 53°33' E 009°55'0 0.0
2017-Jun-27 07:00N 53°33' E 009°55'0 0.0
2017-Jun-27 06:31N 53°33' E 009°55'0 0.0
2017-Jun-27 06:01N 53°33' E 009°55'0 0.0
2017-Jun-27 05:31N 53°33' E 009°55'1 2.7
2017-Jun-27 05:01N 53°32' E 009°54'1 2.8
2017-Jun-27 04:31N 53°33' E 009°55'0 0.0
2017-Jun-27 04:01N 53°33' E 009°55'0 0.0
2017-Jun-27 03:31N 53°33' E 009°55'0 0.0
2017-Jun-27 03:01N 53°33' E 009°55'0 0.0
2017-Jun-27 02:31N 53°33' E 009°55'0 0.0
2017-Jun-27 02:00N 53°33' E 009°55'0 0.0
2017-Jun-27 01:31N 53°33' E 009°55'0 0.0
2017-Jun-27 01:01N 53°33' E 009°55'0 0.0
2017-Jun-27 00:31N 53°33' E 009°55'0 0.0
2017-Jun-27 00:00N 53°33' E 009°55'0 0.0
2017-Jun-26 23:31N 53°33' E 009°55'0 0.0
2017-Jun-26 23:01N 53°33' E 009°55'0 0.0
2017-Jun-26 22:30N 53°33' E 009°55'0 0.0
2017-Jun-26 22:01N 53°33' E 009°55'0 0.0
2017-Jun-26 21:30N 53°33' E 009°55'0 0.0
2017-Jun-26 21:01N 53°33' E 009°55'0 0.0
2017-Jun-26 20:30N 53°33' E 009°55'0 0.0
2017-Jun-26 20:01N 53°33' E 009°55'0 0.0
2017-Jun-26 19:31N 53°33' E 009°55'0 0.0
2017-Jun-26 19:00N 53°33' E 009°55'0 0.0
2017-Jun-26 18:31N 53°33' E 009°55'0 0.2
2017-Jun-26 18:00N 53°33' E 009°55'0 0.0
2017-Jun-26 17:30N 53°33' E 009°55'1 2.6
2017-Jun-26 17:01N 53°32' E 009°56'0 0.7
2017-Jun-26 16:31N 53°31' E 009°56'2 4.6
2017-Jun-26 16:01N 53°33' E 009°53'1 1.3
2017-Jun-26 15:31N 53°33' E 009°54'1 1.1
2017-Jun-26 15:01N 53°33' E 009°55'0 0.0
2017-Jun-26 14:30N 53°33' E 009°55'0 0.0
2017-Jun-26 13:31N 53°33' E 009°55'0 0.0
2017-Jun-26 13:00N 53°33' E 009°55'0 0.0
2017-Jun-26 12:31N 53°33' E 009°55'0 0.0
2017-Jun-26 12:00N 53°33' E 009°55'0 0.0
2017-Jun-26 11:31N 53°33' E 009°55'0 0.0
2017-Jun-26 11:01N 53°33' E 009°55'0 0.0
2017-Jun-26 10:31N 53°33' E 009°55'0 0.0
2017-Jun-26 10:01N 53°33' E 009°55'0 0.0
2017-Jun-26 09:30N 53°33' E 009°55'0 0.0
2017-Jun-26 09:00N 53°33' E 009°55'0 0.2
2017-Jun-26 08:31N 53°33' E 009°55'0 0.5
2017-Jun-26 08:01N 53°33' E 009°56'2 4.5
2017-Jun-26 07:31N 53°32' E 009°59'1 1.3
2017-Jun-26 07:01N 53°32' E 009°59'1 2.0
2017-Jun-26 06:30N 53°32' E 009°57'1 1.8
2017-Jun-26 06:00N 53°33' E 009°55'0 0.0
2017-Jun-26 05:30N 53°33' E 009°55'1 1.5
2017-Jun-26 05:01N 53°32' E 009°54'0 0.1
2017-Jun-26 04:31N 53°32' E 009°54'2 4.6
2017-Jun-26 04:01N 53°33' E 009°51'0 0.2
2017-Jun-26 03:31N 53°33' E 009°51'1 1.3
2017-Jun-26 03:00N 53°33' E 009°52'2 4.4
2017-Jun-26 02:31N 53°32' E 009°55'1 1.6
2017-Jun-26 02:01N 53°33' E 009°55'0 0.1
2017-Jun-26 01:31N 53°33' E 009°55'0 0.0
2017-Jun-26 01:01N 53°33' E 009°55'0 0.0
2017-Jun-26 00:31N 53°33' E 009°55'0 0.0
2017-Jun-26 00:01N 53°33' E 009°55'0 0.0
2017-Jun-25 23:31N 53°33' E 009°55'0 0.0
2017-Jun-25 23:01N 53°33' E 009°55'0 0.0
2017-Jun-25 22:31N 53°33' E 009°55'0 0.0
2017-Jun-25 22:00N 53°33' E 009°55'0 0.0
2017-Jun-25 21:30N 53°33' E 009°55'0 0.0
2017-Jun-25 21:01N 53°33' E 009°55'0 0.0
2017-Jun-25 20:31N 53°33' E 009°55'0 0.0
2017-Jun-25 20:01N 53°33' E 009°55'0 0.0
2017-Jun-25 19:30N 53°33' E 009°55'0 0.0
2017-Jun-25 19:00N 53°33' E 009°55'0 0.0
2017-Jun-25 18:31N 53°33' E 009°55'0 0.0
2017-Jun-25 18:01N 53°33' E 009°55'0 0.0
2017-Jun-25 17:30N 53°33' E 009°55'0 0.0
2017-Jun-25 17:00N 53°33' E 009°55'0 0.0
2017-Jun-25 16:31N 53°33' E 009°55'0 0.0
2017-Jun-25 16:01N 53°33' E 009°55'0 0.0
2017-Jun-25 15:31N 53°33' E 009°55'0 0.0
2017-Jun-25 15:01N 53°33' E 009°55'0 0.0
2017-Jun-25 14:31N 53°33' E 009°55'0 0.0
2017-Jun-25 13:30N 53°33' E 009°55'0 0.0
2017-Jun-25 13:00N 53°33' E 009°55'0 0.0
2017-Jun-25 12:31N 53°33' E 009°55'2 3.3
2017-Jun-25 12:00N 53°31' E 009°56'1 1.8
2017-Jun-25 11:30N 53°30' E 009°56'1 1.3
2017-Jun-25 11:01N 53°31' E 009°56'2 5.0
2017-Jun-25 10:31N 53°32' E 009°53'2 3.1
2017-Jun-25 10:00N 53°33' E 009°51'3 5.1
2017-Jun-25 09:30N 53°33' E 009°55'0 0.5
2017-Jun-25 09:00N 53°33' E 009°55'0 0.0
2017-Jun-25 08:30N 53°33' E 009°55'0 0.0
2017-Jun-25 08:00N 53°33' E 009°55'0 0.0
2017-Jun-25 07:30N 53°33' E 009°55'0 0.0
2017-Jun-25 07:01N 53°33' E 009°55'0 0.0
2017-Jun-25 06:31N 53°33' E 009°55'0 0.0
2017-Jun-25 06:00N 53°33' E 009°55'0 0.6
2017-Jun-25 05:31N 53°32' E 009°55'1 1.6
2017-Jun-25 05:01N 53°32' E 009°55'1 1.5
2017-Jun-25 04:31N 53°32' E 009°54'2 3.8
2017-Jun-25 04:00N 53°32' E 009°57'1 3.0
2017-Jun-25 03:31N 53°33' E 009°55'0 0.0
2017-Jun-25 03:01N 53°33' E 009°55'0 0.0
2017-Jun-25 02:31N 53°33' E 009°55'0 0.0
2017-Jun-25 02:01N 53°33' E 009°55'0 0.0
2017-Jun-25 01:30N 53°33' E 009°55'0 0.0
2017-Jun-25 01:01N 53°33' E 009°55'0 0.0
2017-Jun-25 00:30N 53°33' E 009°55'0 0.0
2017-Jun-25 00:01N 53°33' E 009°55'0 0.0
2017-Jun-24 23:31N 53°33' E 009°55'0 0.0
2017-Jun-24 23:00N 53°33' E 009°55'0 0.0
2017-Jun-24 22:31N 53°33' E 009°55'0 0.0
2017-Jun-24 22:01N 53°33' E 009°55'0 0.0
2017-Jun-24 21:30N 53°33' E 009°55'0 0.0
2017-Jun-24 21:00N 53°33' E 009°55'0 0.0
2017-Jun-24 20:31N 53°33' E 009°55'0 0.0
2017-Jun-24 20:01N 53°33' E 009°55'0 0.0
2017-Jun-24 19:31N 53°33' E 009°55'0 0.0
2017-Jun-24 19:00N 53°33' E 009°55'0 0.0
2017-Jun-24 18:30N 53°33' E 009°55'0 0.0
2017-Jun-24 18:01N 53°33' E 009°55'2 4.0
2017-Jun-24 17:31N 53°32' E 009°59'2 4.0
2017-Jun-24 17:01N 53°33' E 009°55'0 0.0
2017-Jun-24 16:30N 53°33' E 009°55'0 0.0
2017-Jun-24 16:00N 53°33' E 009°55'0 0.0
2017-Jun-24 15:30N 53°33' E 009°55'0 0.0
2017-Jun-24 15:00N 53°33' E 009°55'1 0.8
2017-Jun-24 14:01N 53°32' E 009°57'1 1.5
2017-Jun-24 13:30N 53°33' E 009°55'0 0.0
2017-Jun-24 13:01N 53°33' E 009°55'0 0.0
2017-Jun-24 12:31N 53°33' E 009°55'0 0.0
2017-Jun-24 12:01N 53°33' E 009°55'0 0.0
2017-Jun-24 11:31N 53°33' E 009°55'0 0.0
2017-Jun-24 11:01N 53°33' E 009°55'0 0.0
2017-Jun-24 10:31N 53°33' E 009°55'0 0.0
2017-Jun-24 10:01N 53°33' E 009°55'0 0.0
2017-Jun-24 09:30N 53°33' E 009°55'0 0.0
2017-Jun-24 09:00N 53°33' E 009°55'0 0.0
2017-Jun-24 08:31N 53°33' E 009°55'0 0.0
2017-Jun-24 08:01N 53°33' E 009°55'0 0.0
2017-Jun-24 07:31N 53°33' E 009°55'0 0.0
2017-Jun-24 07:01N 53°33' E 009°55'0 0.0
2017-Jun-24 06:31N 53°33' E 009°55'0 0.0
2017-Jun-24 06:00N 53°33' E 009°55'0 0.0
2017-Jun-24 05:31N 53°33' E 009°55'1 1.9
2017-Jun-24 05:00N 53°32' E 009°57'2 3.2
2017-Jun-24 04:31N 53°32' E 009°54'1 1.3
2017-Jun-24 04:01N 53°32' E 009°55'1 1.7
2017-Jun-24 03:31N 53°33' E 009°55'0 0.0
2017-Jun-24 03:00N 53°33' E 009°55'0 0.0
2017-Jun-24 02:31N 53°33' E 009°55'0 0.0
2017-Jun-24 02:00N 53°33' E 009°55'0 0.0
2017-Jun-24 01:30N 53°33' E 009°55'0 0.0
2017-Jun-24 01:00N 53°33' E 009°55'0 0.0
2017-Jun-24 00:31N 53°33' E 009°55'0 0.0
2017-Jun-24 00:00N 53°33' E 009°55'0 0.0
2017-Jun-23 23:30N 53°33' E 009°55'0 0.0
2017-Jun-23 23:00N 53°33' E 009°55'0 0.0
2017-Jun-23 22:30N 53°33' E 009°55'0 0.0
2017-Jun-23 22:01N 53°33' E 009°55'0 0.9
2017-Jun-23 21:31N 53°32' E 009°56'2 4.2
2017-Jun-23 21:00N 53°30' E 009°56'0 0.7
2017-Jun-23 20:31N 53°31' E 009°56'2 4.3
2017-Jun-23 20:01N 53°32' E 009°54'1 1.4
2017-Jun-23 19:30N 53°33' E 009°55'0 0.0
2017-Jun-23 19:01N 53°33' E 009°55'0 0.0
2017-Jun-23 18:31N 53°33' E 009°55'0 0.0
2017-Jun-23 18:01N 53°33' E 009°55'0 0.0
2017-Jun-23 17:31N 53°33' E 009°55'0 0.0
2017-Jun-23 17:01N 53°33' E 009°55'0 0.0
2017-Jun-23 16:31N 53°33' E 009°55'0 0.0
2017-Jun-23 16:00N 53°33' E 009°55'0 0.0
2017-Jun-23 15:30N 53°33' E 009°55'0 0.0
2017-Jun-23 15:01N 53°33' E 009°55'2 1.6
2017-Jun-23 14:01N 53°31' E 009°56'1 2.8
2017-Jun-23 13:30N 53°32' E 009°56'0 0.6
2017-Jun-23 13:01N 53°33' E 009°55'0 0.0
2017-Jun-23 12:31N 53°33' E 009°55'0 0.0
2017-Jun-23 12:01N 53°33' E 009°55'0 0.0
2017-Jun-23 11:30N 53°33' E 009°55'0 0.0
2017-Jun-23 11:00N 53°33' E 009°55'0 0.0
2017-Jun-23 10:31N 53°33' E 009°55'0 0.0
2017-Jun-23 10:01N 53°33' E 009°55'0 0.0
2017-Jun-23 09:31N 53°33' E 009°55'0 0.0
2017-Jun-23 09:01N 53°33' E 009°55'0 0.0
2017-Jun-23 08:31N 53°33' E 009°55'0 0.0
2017-Jun-23 08:01N 53°33' E 009°55'0 0.0
2017-Jun-23 07:31N 53°33' E 009°55'0 0.0
2017-Jun-23 07:01N 53°33' E 009°55'0 0.0
2017-Jun-23 06:31N 53°33' E 009°55'0 0.0
2017-Jun-23 06:00N 53°33' E 009°55'0 0.0
2017-Jun-23 05:31N 53°33' E 009°55'0 0.0
2017-Jun-23 05:00N 53°33' E 009°55'0 0.0
2017-Jun-23 04:30N 53°33' E 009°55'0 0.0
2017-Jun-23 04:01N 53°33' E 009°55'0 0.0
2017-Jun-23 03:31N 53°33' E 009°55'0 0.0
2017-Jun-23 03:00N 53°33' E 009°55'0 0.0
2017-Jun-23 02:30N 53°33' E 009°55'0 0.0
2017-Jun-23 02:00N 53°33' E 009°55'0 0.0
2017-Jun-23 01:31N 53°33' E 009°55'0 0.0
2017-Jun-23 01:01N 53°33' E 009°55'0 0.0
2017-Jun-23 00:31N 53°33' E 009°55'0 0.0
2017-Jun-23 00:00N 53°33' E 009°55'0 0.0
2017-Jun-22 23:31N 53°33' E 009°55'0 0.0
2017-Jun-22 23:01N 53°33' E 009°55'0 0.0
2017-Jun-22 22:31N 53°33' E 009°55'0 0.0
2017-Jun-22 22:01N 53°33' E 009°55'0 0.0
2017-Jun-22 21:31N 53°33' E 009°55'0 0.0
2017-Jun-22 21:01N 53°33' E 009°55'0 0.0
2017-Jun-22 20:31N 53°33' E 009°55'0 0.0
2017-Jun-22 20:01N 53°33' E 009°55'0 0.0
2017-Jun-22 19:31N 53°33' E 009°55'0 0.0
2017-Jun-22 19:01N 53°33' E 009°55'1 1.5
2017-Jun-22 18:30N 53°32' E 009°54'0 0.2
2017-Jun-22 18:00N 53°32' E 009°54'2 3.5
2017-Jun-22 17:31N 53°33' E 009°52'2 4.5
2017-Jun-22 17:01N 53°33' E 009°55'0 0.0
2017-Jun-22 16:30N 53°33' E 009°55'0 0.0
2017-Jun-22 16:00N 53°33' E 009°55'0 0.0
2017-Jun-22 15:31N 53°33' E 009°55'0 0.0
2017-Jun-22 15:00N 53°33' E 009°55'0 0.0
2017-Jun-22 14:01N 53°33' E 009°55'0 0.0
2017-Jun-22 13:31N 53°33' E 009°55'0 0.0
2017-Jun-22 13:01N 53°33' E 009°55'0 0.0
2017-Jun-22 12:31N 53°33' E 009°55'0 0.0
2017-Jun-22 12:01N 53°33' E 009°55'0 0.0
2017-Jun-22 11:30N 53°33' E 009°55'0 0.0
2017-Jun-22 11:00N 53°33' E 009°55'0 0.0
2017-Jun-22 10:31N 53°33' E 009°55'0 0.0
2017-Jun-22 10:00N 53°33' E 009°55'0 0.0
2017-Jun-22 09:31N 53°33' E 009°55'0 0.0
2017-Jun-22 09:00N 53°33' E 009°55'0 0.0
2017-Jun-22 08:31N 53°33' E 009°55'0 0.0
2017-Jun-22 08:00N 53°33' E 009°55'0 0.0
2017-Jun-22 07:30N 53°33' E 009°55'0 0.0
2017-Jun-22 07:01N 53°33' E 009°55'0 0.0
2017-Jun-22 06:31N 53°33' E 009°55'0 0.0
2017-Jun-22 06:00N 53°33' E 009°55'0 0.0
2017-Jun-22 05:31N 53°33' E 009°55'0 0.0
2017-Jun-22 05:01N 53°33' E 009°55'0 0.0
2017-Jun-22 04:31N 53°33' E 009°55'0 0.0
2017-Jun-22 04:00N 53°33' E 009°55'0 0.0
2017-Jun-22 03:30N 53°33' E 009°55'0 0.0
2017-Jun-22 03:01N 53°33' E 009°55'0 0.0
2017-Jun-22 02:31N 53°33' E 009°55'0 0.0
2017-Jun-22 02:01N 53°33' E 009°55'0 0.0
2017-Jun-22 01:31N 53°33' E 009°55'0 0.0
2017-Jun-22 01:01N 53°33' E 009°55'2 3.2
2017-Jun-22 00:30N 53°31' E 009°56'1 1.9
2017-Jun-22 00:01N 53°32' E 009°56'3 5.3
2017-Jun-21 23:30N 53°33' E 009°52'2 4.2
2017-Jun-21 23:01N 53°33' E 009°55'0 0.0
2017-Jun-21 22:31N 53°33' E 009°55'0 0.0
2017-Jun-21 22:01N 53°33' E 009°55'0 0.0
2017-Jun-21 21:31N 53°33' E 009°55'0 0.4
2017-Jun-21 21:00N 53°33' E 009°56'2 4.9
2017-Jun-21 20:31N 53°30' E 009°57'2 3.2
2017-Jun-21 20:00N 53°32' E 009°56'1 2.6
2017-Jun-21 19:30N 53°32' E 009°54'1 1.3
2017-Jun-21 19:00N 53°33' E 009°55'0 0.0
2017-Jun-21 18:31N 53°33' E 009°55'0 0.0
2017-Jun-21 18:01N 53°33' E 009°55'1 1.7
2017-Jun-21 17:30N 53°33' E 009°57'1 3.0
2017-Jun-21 17:01N 53°32' E 009°59'1 2.4
2017-Jun-21 16:30N 53°33' E 009°57'1 2.3
2017-Jun-21 16:00N 53°33' E 009°55'0 0.0
2017-Jun-21 15:30N 53°33' E 009°55'0 0.0
2017-Jun-21 15:01N 53°33' E 009°55'0 0.0
2017-Jun-21 14:30N 53°33' E 009°55'0 0.0
2017-Jun-21 13:30N 53°33' E 009°55'3 6.3
2017-Jun-21 13:01N 53°32' E 010°00'0 0.1
2017-Jun-21 12:30N 53°32' E 010°00'2 4.9
2017-Jun-21 12:01N 53°32' E 009°56'2 3.1
2017-Jun-21 11:31N 53°30' E 009°56'2 3.0
2017-Jun-21 11:01N 53°32' E 009°56'1 1.8
2017-Jun-21 10:30N 53°33' E 009°55'0 0.0
2017-Jun-21 10:01N 53°33' E 009°55'0 0.0
2017-Jun-21 09:31N 53°33' E 009°55'0 0.0
2017-Jun-21 09:01N 53°33' E 009°55'0 0.0
2017-Jun-21 08:30N 53°33' E 009°55'0 0.0
2017-Jun-21 08:00N 53°33' E 009°55'0 0.0
2017-Jun-21 07:31N 53°33' E 009°55'0 0.0
2017-Jun-21 07:00N 53°33' E 009°55'0 0.0
2017-Jun-21 06:30N 53°33' E 009°55'0 0.0
2017-Jun-21 06:01N 53°33' E 009°55'0 0.0
2017-Jun-21 05:31N 53°33' E 009°55'0 0.0
2017-Jun-21 05:01N 53°33' E 009°55'0 0.0
2017-Jun-21 04:31N 53°33' E 009°55'0 0.0
2017-Jun-21 04:00N 53°33' E 009°55'0 0.0
2017-Jun-21 03:30N 53°33' E 009°55'0 0.0
2017-Jun-21 03:01N 53°33' E 009°55'0 0.0
2017-Jun-21 02:30N 53°33' E 009°55'0 0.0
2017-Jun-21 02:01N 53°33' E 009°55'0 0.0
2017-Jun-21 01:31N 53°33' E 009°55'0 0.0
2017-Jun-21 01:01N 53°33' E 009°55'0 0.0
2017-Jun-21 00:31N 53°33' E 009°55'0 0.0
2017-Jun-21 00:01N 53°33' E 009°55'0 0.0
2017-Jun-20 23:31N 53°33' E 009°55'0 0.8
2017-Jun-20 23:01N 53°33' E 009°55'0 0.0
2017-Jun-20 22:30N 53°33' E 009°55'0 0.8
2017-Jun-20 22:01N 53°33' E 009°55'0 0.0
2017-Jun-20 21:31N 53°33' E 009°55'0 0.0
2017-Jun-20 21:00N 53°33' E 009°55'0 0.0
2017-Jun-20 20:30N 53°33' E 009°55'0 0.0
2017-Jun-20 20:00N 53°33' E 009°55'0 0.0
2017-Jun-20 19:30N 53°33' E 009°55'0 0.0
2017-Jun-20 19:00N 53°33' E 009°55'0 0.0
2017-Jun-20 18:30N 53°33' E 009°55'0 0.0
2017-Jun-20 18:00N 53°33' E 009°55'0 0.0
2017-Jun-20 17:31N 53°33' E 009°55'0 0.0
2017-Jun-20 17:00N 53°33' E 009°55'0 0.0
2017-Jun-20 16:30N 53°33' E 009°55'0 0.0
2017-Jun-20 16:00N 53°33' E 009°55'0 0.0
2017-Jun-20 15:31N 53°33' E 009°55'0 0.0
2017-Jun-20 15:00N 53°33' E 009°55'0 0.0
2017-Jun-20 14:31N 53°33' E 009°55'2 1.9
2017-Jun-20 13:30N 53°33' E 009°52'4 7.7
2017-Jun-20 13:00N 53°34' E 009°46'4 8.1
2017-Jun-20 12:31N 53°34' E 009°39'4 7.9
2017-Jun-20 12:01N 53°37' E 009°34'3 6.4
2017-Jun-20 11:31N 53°39' E 009°31'0 0.2
2017-Jun-20 11:00N 53°39' E 009°31'2 3.0
2017-Jun-20 10:31N 53°41' E 009°30'3 6.7
2017-Jun-20 10:01N 53°38' E 009°32'611.7
2017-Jun-20 09:30N 53°34' E 009°40'510.1
2017-Jun-20 09:00N 53°33' E 009°49'4 8.0
2017-Jun-20 08:30N 53°33' E 009°55'0 0.0
2017-Jun-20 08:01N 53°33' E 009°55'0 0.0
2017-Jun-20 07:30N 53°33' E 009°55'0 0.0
2017-Jun-20 07:01N 53°33' E 009°55'0 0.0
2017-Jun-20 06:31N 53°33' E 009°55'0 0.0
2017-Jun-20 06:00N 53°33' E 009°55'0 0.0
2017-Jun-20 05:30N 53°33' E 009°55'0 0.0
2017-Jun-20 05:00N 53°33' E 009°55'0 0.0
2017-Jun-20 04:31N 53°33' E 009°55'0 0.0
2017-Jun-20 04:00N 53°33' E 009°55'0 0.0
2017-Jun-20 03:31N 53°33' E 009°55'0 0.0
2017-Jun-20 03:01N 53°33' E 009°55'0 0.0
2017-Jun-20 02:31N 53°33' E 009°55'0 0.0
2017-Jun-20 02:00N 53°33' E 009°55'0 0.0
2017-Jun-20 01:31N 53°33' E 009°55'0 0.0
2017-Jun-20 01:01N 53°33' E 009°55'0 0.0
2017-Jun-20 00:31N 53°33' E 009°55'0 0.0
2017-Jun-20 00:00N 53°33' E 009°55'0 0.0
2017-Jun-19 23:31N 53°33' E 009°55'0 0.0
2017-Jun-19 23:00N 53°33' E 009°55'0 0.0
2017-Jun-19 22:31N 53°33' E 009°55'0 0.0
2017-Jun-19 22:00N 53°33' E 009°55'0 0.0
2017-Jun-19 21:31N 53°33' E 009°55'0 0.0
2017-Jun-19 21:01N 53°33' E 009°55'0 0.0
2017-Jun-19 20:31N 53°33' E 009°55'0 0.0
2017-Jun-19 20:01N 53°33' E 009°55'0 0.0
2017-Jun-19 19:30N 53°33' E 009°55'0 0.0
2017-Jun-19 19:00N 53°33' E 009°55'0 0.0
2017-Jun-19 18:30N 53°33' E 009°55'0 0.1
2017-Jun-19 18:01N 53°33' E 009°55'2 4.8
2017-Jun-19 17:31N 53°30' E 009°56'1 2.9
2017-Jun-19 17:00N 53°32' E 009°56'3 5.7
2017-Jun-19 16:31N 53°33' E 009°52'2 4.2
2017-Jun-19 16:00N 53°33' E 009°55'0 0.0
2017-Jun-19 15:31N 53°33' E 009°55'0 0.0
2017-Jun-19 15:01N 53°33' E 009°55'2 2.4
2017-Jun-19 14:00N 53°32' E 009°59'2 3.6
2017-Jun-19 13:30N 53°33' E 009°56'2 4.6
2017-Jun-19 13:01N 53°30' E 009°57'2 3.6
2017-Jun-19 12:30N 53°32' E 009°56'1 1.5
2017-Jun-19 12:01N 53°33' E 009°55'0 0.0
2017-Jun-19 11:30N 53°33' E 009°55'0 0.0
2017-Jun-19 11:01N 53°33' E 009°55'  

Dump ship's entire track history